Time;durP1;ratioP1;P1;durP2;ratioP2;P2;SDS_P1;SDS_P2;PMS_P1;PMS_P2;Temp;Humidity;BMP_temperature;BMP_pressure;BME280_temperature;BME280_humidity;BME280_pressure;Samples;Min_cycle;Max_cycle;Signal;HPM_P1;HPM_P2
2022/04/10 00:01:15;;;;;;;18.20;8.00;;;;;;;10.32;69.18;98349.86;25120;1316;3027095;-67
2022/04/10 00:03:45;;;;;;;20.30;8.50;;;;;;;10.25;69.42;98352.81;25111;1315;3026469;-72
2022/04/10 00:06:14;;;;;;;17.60;8.30;;;;;;;10.01;70.33;98360.95;25106;1315;3026853;-69
2022/04/10 00:09:03;;;;;;;24.60;8.40;;;;;;;9.95;70.53;98363.17;25038;1318;3068789;-66
2022/04/10 00:11:52;;;;;;;17.70;5.90;;;;;;;9.81;71.69;98365.23;25088;1316;3049379;-70
2022/04/10 00:14:21;;;;;;;16.70;6.70;;;;;;;10.44;69.78;98362.05;25046;1315;3027084;-65
2022/04/10 00:16:50;;;;;;;22.60;8.00;;;;;;;10.73;68.55;98354.17;25084;1316;3068136;-67
2022/04/10 00:19:31;;;;;;;20.70;8.60;;;;;;;10.62;68.70;98359.63;25088;1316;3051751;-68
2022/04/10 00:22:00;;;;;;;26.50;9.10;;;;;;;10.37;69.43;98360.84;25122;1315;3026321;-66
2022/04/10 00:24:30;;;;;;;24.40;9.20;;;;;;;10.17;70.13;98359.88;25104;1315;3026530;-68
2022/04/10 00:26:59;;;;;;;27.00;9.50;;;;;;;10.08;70.41;98351.27;25048;1315;3029538;-65
2022/04/10 00:29:29;;;;;;;24.60;10.00;;;;;;;10.07;70.43;98349.83;25005;1315;3026823;-69
2022/04/10 00:32:04;;;;;;;25.50;9.90;;;;;;;9.99;70.61;98350.95;25143;1315;3054684;-67
2022/04/10 00:34:34;;;;;;;19.60;6.50;;;;;;;9.91;71.08;98348.01;25087;1315;3026375;-67
2022/04/10 00:37:04;;;;;;;18.10;7.20;;;;;;;10.46;69.45;98348.39;25042;1315;3026770;-71
2022/04/10 00:39:33;;;;;;;20.70;7.30;;;;;;;10.82;67.89;98345.83;25183;1315;3054514;-69
2022/04/10 00:42:03;;;;;;;19.60;8.00;;;;;;;10.79;67.81;98343.39;25104;1316;3026570;-71
2022/04/10 00:44:34;;;;;;;22.10;9.00;;;;;;;10.74;67.88;98337.29;25099;1318;3049554;-69
2022/04/10 00:47:04;;;;;;;22.90;8.80;;;;;;;10.44;68.76;98343.16;25096;1316;3028650;-65
2022/04/10 00:49:34;;;;;;;19.10;8.50;;;;;;;10.37;68.99;98340.56;25140;1315;3026768;-72
2022/04/10 00:52:06;;;;;;;20.90;8.80;;;;;;;10.23;69.54;98332.89;25126;1315;3026175;-66
2022/04/10 00:54:36;;;;;;;20.20;9.20;;;;;;;10.07;70.30;98332.88;25082;1318;3051269;-70
2022/04/10 00:57:05;;;;;;;28.50;9.60;;;;;;;9.99;70.39;98331.55;25069;1318;3028922;-68
2022/04/10 00:59:34;;;;;;;19.10;6.50;;;;;;;9.88;71.08;98332.84;25084;1315;3051676;-68
2022/04/10 01:02:04;;;;;;;14.20;6.60;;;;;;;10.28;70.00;98328.27;25118;1316;3026805;-69
2022/04/10 01:04:35;;;;;;;20.70;7.90;;;;;;;10.71;68.35;98325.80;25069;1315;3026761;-66
2022/04/10 01:07:06;;;;;;;20.10;8.10;;;;;;;10.76;67.83;98323.02;25092;1315;3027307;-69
2022/04/10 01:09:35;;;;;;;21.40;8.70;;;;;;;10.60;68.09;98327.17;25055;1315;3027348;-69
2022/04/10 01:12:07;;;;;;;23.60;9.40;;;;;;;10.20;69.40;98327.47;25146;1315;3027053;-68
2022/04/10 01:14:37;;;;;;;24.40;10.30;;;;;;;10.11;69.71;98329.59;25134;1316;3026783;-64
2022/04/10 01:17:10;;;;;;;28.20;11.20;;;;;;;9.93;70.47;98335.86;25099;1316;3028659;-67
2022/04/10 01:19:41;;;;;;;30.10;15.70;;;;;;;9.84;70.74;98338.77;25070;1315;3050826;-70
2022/04/10 01:22:29;;;;;;;27.90;11.90;;;;;;;9.62;72.08;98347.76;25141;1315;3027264;-70
2022/04/10 01:25:18;;;;;;;26.40;10.80;;;;;;;10.28;70.50;98337.17;25080;1315;3052527;-70
2022/04/10 01:27:47;;;;;;;21.40;8.70;;;;;;;10.08;70.37;98334.52;25156;1315;3026512;-69
2022/04/10 01:30:18;;;;;;;19.70;8.60;;;;;;;10.08;70.44;98332.05;25084;1315;3026265;-68
2022/04/10 01:32:49;;;;;;;26.10;9.30;;;;;;;9.96;70.88;98325.81;25094;1315;3028629;-70
2022/04/10 01:35:18;;;;;;;22.30;8.70;;;;;;;9.88;71.20;98321.37;25046;1315;3026810;-66
2022/04/10 01:37:48;;;;;;;24.50;8.90;;;;;;;9.66;71.96;98314.23;25031;1316;3049541;-70
2022/04/10 01:40:24;;;;;;;20.20;9.20;;;;;;;9.58;72.34;98318.16;25079;1316;3051477;-71
2022/04/10 01:42:55;;;;;;;27.50;8.10;;;;;;;9.41;73.21;98314.86;25039;1316;3027238;-69
2022/04/10 01:45:24;;;;;;;17.60;7.10;;;;;;;9.69;72.66;98308.29;25093;1315;3026578;-71
2022/04/10 01:48:05;;;;;;;20.30;8.80;;;;;;;10.24;70.61;98312.61;25113;1316;3052834;-68
2022/04/10 01:50:34;;;;;;;19.90;8.20;;;;;;;10.06;70.80;98311.23;25112;1316;3026570;-68
2022/04/10 01:53:05;;;;;;;20.20;8.60;;;;;;;9.73;72.03;98306.70;25136;1315;3026438;-65
2022/04/10 01:55:34;;;;;;;24.60;10.90;;;;;;;9.76;71.86;98297.95;25058;1315;3028742;-67
2022/04/10 01:58:03;;;;;;;30.10;9.60;;;;;;;9.46;72.95;98298.11;25153;1315;3027222;-69
2022/04/10 02:00:33;;;;;;;19.40;9.80;;;;;;;9.41;72.98;98293.20;25126;1315;3026950;-65
2022/04/10 02:03:04;;;;;;;17.80;6.40;;;;;;;9.37;73.24;98291.05;25085;1316;3026562;-67
2022/04/10 02:05:33;;;;;;;19.60;7.10;;;;;;;9.82;72.55;98280.16;25133;1316;3027400;-65
2022/04/10 02:08:02;;;;;;;20.70;7.90;;;;;;;10.06;71.17;98279.36;25085;1316;3051534;-65
2022/04/10 02:10:48;;;;;;;21.60;8.50;;;;;;;10.11;70.81;98288.77;25067;1315;3055396;-62
2022/04/10 02:13:19;;;;;;;21.80;8.90;;;;;;;9.93;71.03;98296.13;25119;1318;3026464;-69
2022/04/10 02:15:49;;;;;;;21.80;8.20;;;;;;;9.67;72.07;98299.67;25121;1316;3026895;-64
2022/04/10 02:18:18;;;;;;;24.10;8.50;;;;;;;9.65;72.09;98297.00;25057;1318;3028450;-68
2022/04/10 02:21:06;;;;;;;20.20;9.60;;;;;;;9.34;73.26;98302.30;25037;1315;3056467;-66
2022/04/10 02:23:36;;;;;;;20.40;7.10;;;;;;;9.19;74.39;98301.60;25116;1316;3026628;-64
2022/04/10 02:26:05;;;;;;;18.80;6.90;;;;;;;9.49;73.50;98289.62;25122;1315;3056362;-67
2022/04/10 02:28:34;;;;;;;19.00;7.70;;;;;;;9.95;71.81;98293.50;25048;1315;3028633;-63
2022/04/10 02:31:03;;;;;;;23.10;8.80;;;;;;;9.81;71.78;98304.73;25070;1316;3026474;-68
2022/04/10 02:33:38;;;;;;;29.00;9.20;;;;;;;9.72;72.34;98309.60;25094;1315;3052944;-67
2022/04/10 02:36:08;;;;;;;23.00;8.90;;;;;;;9.48;73.10;98313.81;25124;1315;3026034;-69
2022/04/10 02:38:42;;;;;;;22.00;9.80;;;;;;;9.31;73.81;98315.30;25050;1318;3051016;-71
2022/04/10 02:41:11;;;;;;;24.70;10.40;;;;;;;9.20;73.97;98322.55;25110;1315;3025957;-70
2022/04/10 02:43:41;;;;;;;17.60;6.10;;;;;;;9.12;74.35;98319.06;25116;1316;3026386;-70
2022/04/10 02:46:11;;;;;;;21.50;7.50;;;;;;;9.62;73.17;98320.11;25120;1315;3028797;-69
2022/04/10 02:48:42;;;;;;;18.20;7.20;;;;;;;10.06;71.48;98312.13;25112;1315;3027057;-67
2022/04/10 02:51:12;;;;;;;22.00;7.80;;;;;;;10.08;70.51;98312.42;25112;1316;3026456;-67
2022/04/10 02:53:41;;;;;;;26.20;9.70;;;;;;;9.92;71.23;98319.66;25000;1315;3027002;-65
2022/04/10 02:56:10;;;;;;;22.20;8.80;;;;;;;9.77;71.54;98317.61;25121;1316;3029001;-67
2022/04/10 02:58:39;;;;;;;19.50;9.70;;;;;;;9.42;73.20;98320.58;25058;1316;3026425;-68
2022/04/10 03:01:08;;;;;;;25.80;9.20;;;;;;;9.27;73.81;98314.64;25127;1315;3052398;-67
2022/04/10 03:03:38;;;;;;;17.90;7.00;;;;;;;9.10;74.35;98318.52;25399;1315;3026687;-66
2022/04/10 03:06:08;;;;;;;24.50;8.80;;;;;;;9.53;73.58;98314.53;25458;1315;3026211;-63
2022/04/10 03:08:37;;;;;;;30.00;9.80;;;;;;;9.56;73.03;98319.56;25339;1315;3025783;-68
2022/04/10 03:11:08;;;;;;;21.10;9.00;;;;;;;9.68;72.44;98315.63;25107;1315;3027302;-67
2022/04/10 03:13:37;;;;;;;25.20;9.30;;;;;;;9.51;72.77;98313.97;25150;1315;3026481;-68
2022/04/10 03:16:08;;;;;;;25.90;10.00;;;;;;;9.33;73.43;98322.33;25088;1316;3027399;-67
2022/04/10 03:18:38;;;;;;;27.40;10.60;;;;;;;9.15;74.40;98324.30;25106;1316;3027169;-69
2022/04/10 03:21:08;;;;;;;25.60;9.50;;;;;;;9.08;74.63;98331.78;25067;1316;3026695;-70
2022/04/10 03:23:37;;;;;;;19.70;6.90;;;;;;;8.98;75.14;98331.81;25052;1315;3026394;-66
2022/04/10 03:26:06;;;;;;;18.30;7.40;;;;;;;9.42;74.10;98324.73;25060;1319;3026246;-67
2022/04/10 03:28:35;;;;;;;22.10;9.30;;;;;;;9.67;72.78;98340.92;25063;1315;3054649;-63
2022/04/10 03:31:05;;;;;;;23.70;8.80;;;;;;;9.75;72.28;98338.39;25036;1315;3026445;-67
2022/04/10 03:33:36;;;;;;;29.30;10.20;;;;;;;9.66;72.18;98336.75;25100;1315;3026944;-66
2022/04/10 03:36:06;;;;;;;26.10;10.10;;;;;;;9.29;73.60;98347.20;25082;1316;3027668;-72
2022/04/10 03:38:36;;;;;;;25.50;9.90;;;;;;;9.11;74.66;98353.57;25081;1315;3027150;-65
2022/04/10 03:41:05;;;;;;;26.00;9.30;;;;;;;9.18;74.45;98347.98;25076;1316;3029561;-71
2022/04/10 03:43:35;;;;;;;15.40;7.00;;;;;;;9.10;74.78;98347.52;25136;1315;3051758;-70
2022/04/10 03:46:05;;;;;;;19.00;7.50;;;;;;;9.65;73.39;98335.10;25113;1315;3027106;-71
2022/04/10 03:48:46;;;;;;;20.20;8.30;;;;;;;9.92;71.77;98337.86;25100;1316;3071027;-73
2022/04/10 03:51:17;;;;;;;25.60;9.30;;;;;;;9.93;71.52;98347.41;25112;1317;3028634;-70
2022/04/10 03:53:47;;;;;;;25.40;10.00;;;;;;;9.56;72.69;98357.79;25120;1315;3027620;-69
2022/04/10 03:56:16;;;;;;;27.60;10.90;;;;;;;9.24;74.11;98370.48;25100;1315;3027485;-67
2022/04/10 03:58:45;;;;;;;37.00;11.70;;;;;;;9.04;75.02;98369.61;25088;1316;3026671;-65
2022/04/10 04:01:15;;;;;;;30.50;10.00;;;;;;;9.04;75.15;98375.73;25149;1315;3055288;-67
2022/04/10 04:03:44;;;;;;;25.90;7.90;;;;;;;8.98;75.51;98372.11;25105;1316;3026953;-67
2022/04/10 04:06:14;;;;;;;22.20;8.70;;;;;;;9.41;74.29;98374.83;25052;1318;3027514;-71
2022/04/10 04:09:04;;;;;;;22.60;9.00;;;;;;;9.78;72.52;98372.46;25099;1318;3049950;-69
2022/04/10 04:11:33;;;;;;;28.80;10.80;;;;;;;9.77;72.18;98373.92;25093;1318;3028684;-71
2022/04/10 04:14:03;;;;;;;26.00;10.00;;;;;;;9.53;72.98;98380.45;25172;1315;3026921;-68
2022/04/10 04:16:33;;;;;;;35.00;10.60;;;;;;;9.41;73.77;98382.00;25038;1318;3051659;-66
2022/04/10 04:19:02;;;;;;;25.20;10.60;;;;;;;9.39;73.90;98377.96;25115;1315;3026828;-65
2022/04/10 04:21:32;;;;;;;28.80;11.10;;;;;;;9.25;74.35;98382.79;25036;1315;3026687;-68
2022/04/10 04:24:01;;;;;;;21.00;7.50;;;;;;;9.13;75.20;98384.01;25055;1315;3026523;-67
2022/04/10 04:26:31;;;;;;;25.00;8.30;;;;;;;9.71;73.39;98373.36;25076;1315;3027513;-68
2022/04/10 04:29:01;;;;;;;23.70;8.90;;;;;;;10.10;71.66;98374.58;25124;1316;3026372;-65
2022/04/10 04:31:30;;;;;;;25.20;9.80;;;;;;;10.02;71.43;98384.49;25047;1318;3026852;-68
2022/04/10 04:34:00;;;;;;;26.10;9.60;;;;;;;9.66;72.57;98392.56;25112;1315;3051233;-67
2022/04/10 04:36:31;;;;;;;32.80;10.30;;;;;;;9.64;72.82;98394.46;25163;1315;3026306;-71
2022/04/10 04:39:00;;;;;;;34.60;12.00;;;;;;;9.60;73.05;98397.02;25076;1316;3026882;-70
2022/04/10 04:41:29;;;;;;;33.00;12.50;;;;;;;9.50;73.56;98399.00;25078;1316;3030930;-69
2022/04/10 04:43:58;;;;;;;24.60;7.80;;;;;;;9.57;73.41;98400.25;25116;1315;3052430;-72
2022/04/10 04:46:28;;;;;;;23.10;8.60;;;;;;;10.01;71.78;98406.55;25028;1318;3026576;-71
2022/04/10 04:48:57;;;;;;;31.50;9.80;;;;;;;10.20;70.84;98414.59;25096;1316;3027114;-68
2022/04/10 04:51:27;;;;;;;36.70;11.40;;;;;;;10.35;70.42;98415.61;25043;1318;3051657;-69
2022/04/10 04:53:57;;;;;;;27.70;11.10;;;;;;;10.13;70.85;98417.55;25036;1316;3026752;-71
2022/04/10 04:56:26;;;;;;;25.20;9.50;;;;;;;10.09;71.30;98410.39;25123;1316;3026382;-72
2022/04/10 04:58:56;;;;;;;29.20;10.20;;;;;;;9.89;71.81;98413.80;25074;1318;3026644;-64
2022/04/10 05:01:26;;;;;;;30.20;10.80;;;;;;;9.80;72.12;98415.34;25060;1318;3025986;-68
2022/04/10 05:03:57;;;;;;;25.20;10.20;;;;;;;9.89;72.00;98409.77;25114;1318;3028678;-69
2022/04/10 05:06:27;;;;;;;20.00;7.50;;;;;;;9.91;72.00;98412.23;25109;1316;3027646;-67
2022/04/10 05:09:06;;;;;;;20.60;7.00;;;;;;;10.47;70.32;98411.40;25136;1315;3051972;-68
2022/04/10 05:11:35;;;;;;;28.80;8.60;;;;;;;10.69;69.05;98417.58;25148;1315;3026916;-71
2022/04/10 05:14:25;;;;;;;21.60;8.60;;;;;;;10.74;69.14;98417.02;25067;1318;3055171;-67
2022/04/10 05:16:55;;;;;;;20.40;7.90;;;;;;;10.81;68.81;98415.92;25123;1316;3026660;-67
2022/04/10 05:19:25;;;;;;;26.40;8.80;;;;;;;10.58;69.22;98415.64;25058;1318;3026752;-68
2022/04/10 05:21:57;;;;;;;24.50;9.80;;;;;;;10.44;69.81;98420.16;25139;1316;3051701;-71
2022/04/10 05:24:27;;;;;;;36.90;10.50;;;;;;;10.35;70.31;98415.11;25133;1315;3026897;-67
2022/04/10 05:26:57;;;;;;;36.00;10.10;;;;;;;10.30;70.44;98424.89;25073;1318;3027174;-68
2022/04/10 05:29:26;;;;;;;20.70;7.00;;;;;;;10.23;70.85;98428.21;25107;1315;3029493;-67
2022/04/10 05:31:56;;;;;;;25.50;7.30;;;;;;;11.04;68.59;98419.06;25067;1315;3026166;-67
2022/04/10 05:34:26;;;;;;;15.40;7.40;;;;;;;11.14;67.52;98423.67;25100;1315;3026920;-71
2022/04/10 05:36:55;;;;;;;20.10;7.80;;;;;;;10.89;68.36;98422.88;25085;1318;3026719;-66
2022/04/10 05:39:24;;;;;;;22.60;7.40;;;;;;;11.05;67.89;98421.42;25128;1317;3030001;-67
2022/04/10 05:41:54;;;;;;;21.90;8.20;;;;;;;10.81;68.51;98421.89;25120;1315;3026976;-67
2022/04/10 05:44:25;;;;;;;20.80;8.30;;;;;;;10.96;68.21;98420.91;25147;1318;3026160;-69
2022/04/10 05:46:55;;;;;;;21.50;8.60;;;;;;;10.90;68.49;98422.06;25149;1315;3030175;-67
2022/04/10 05:49:25;;;;;;;22.60;8.90;;;;;;;10.65;69.21;98426.81;25179;1315;3026603;-65
2022/04/10 05:51:55;;;;;;;24.30;9.20;;;;;;;10.50;69.80;98430.94;25139;1315;3026170;-68
2022/04/10 05:54:25;;;;;;;16.80;5.80;;;;;;;10.41;70.44;98432.86;25116;1315;3026726;-69
2022/04/10 05:56:55;;;;;;;24.50;6.70;;;;;;;10.80;69.07;98433.15;25149;1315;3026460;-67
2022/04/10 05:59:26;;;;;;;22.60;7.30;;;;;;;11.19;67.71;98427.67;25122;1315;3027121;-69
2022/04/10 06:01:56;;;;;;;20.90;7.20;;;;;;;11.33;67.11;98426.05;25058;1318;3027696;-69
2022/04/10 06:04:25;;;;;;;18.90;7.80;;;;;;;11.31;67.00;98431.13;25166;1315;3027096;-69
2022/04/10 06:06:54;;;;;;;22.20;7.70;;;;;;;11.32;67.07;98434.21;25080;1318;3057128;-66
2022/04/10 06:09:50;;;;;;;29.30;8.10;;;;;;;11.09;67.71;98437.21;25099;1319;3052647;-68
2022/04/10 06:12:19;;;;;;;21.70;7.60;;;;;;;11.05;68.24;98439.86;25161;1315;3027356;-69
2022/04/10 06:14:49;;;;;;;22.20;7.70;;;;;;;11.15;67.75;98441.98;25052;1318;3054840;-69
2022/04/10 06:17:18;;;;;;;24.10;9.00;;;;;;;11.19;67.81;98442.42;25150;1315;3027452;-68
2022/04/10 06:19:49;;;;;;;27.20;8.20;;;;;;;11.13;68.21;98440.60;25116;1318;3049157;-68
2022/04/10 06:22:19;;;;;;;24.70;5.90;;;;;;;11.29;67.84;98440.02;25116;1318;3027451;-70
2022/04/10 06:24:50;;;;;;;20.00;5.50;;;;;;;12.03;65.82;98431.61;25100;1315;3026978;-66
2022/04/10 06:27:21;;;;;;;24.90;8.10;;;;;;;12.46;64.27;98428.68;25182;1315;3027553;-66
2022/04/10 06:29:51;;;;;;;25.70;6.90;;;;;;;12.82;62.95;98430.07;25173;1315;3027098;-67
2022/04/10 06:32:20;;;;;;;23.90;7.60;;;;;;;12.69;63.23;98432.23;25100;1316;3026565;-69
2022/04/10 06:34:49;;;;;;;23.10;7.90;;;;;;;12.42;64.07;98439.95;25129;1315;3058521;-70
2022/04/10 06:37:38;;;;;;;21.80;8.10;;;;;;;12.54;63.91;98435.13;25101;1315;3051018;-72
2022/04/10 06:40:08;;;;;;;22.40;8.00;;;;;;;12.50;63.77;98441.95;25080;1318;3026378;-68
2022/04/10 06:42:40;;;;;;;19.30;6.90;;;;;;;12.63;63.37;98437.13;25091;1318;3027043;-69
2022/04/10 06:45:32;;;;;;;20.90;6.80;;;;;;;12.58;63.68;98438.92;24981;1318;3070700;-69
2022/04/10 06:48:14;;;;;;;26.70;8.10;;;;;;;12.63;62.84;98442.92;25118;1315;3052170;-65
2022/04/10 06:50:47;;;;;;;24.30;7.40;;;;;;;12.66;62.57;98442.13;25119;1315;3029968;-68
2022/04/10 06:53:24;;;;;;;22.20;7.00;;;;;;;12.66;62.29;98443.40;25121;1315;3054674;-69
2022/04/10 06:55:54;;;;;;;25.10;8.20;;;;;;;12.65;62.15;98440.48;25129;1318;3026476;-67
2022/04/10 06:58:23;;;;;;;23.30;7.10;;;;;;;12.62;62.32;98438.64;25082;1318;3027713;-67
2022/04/10 07:00:58;;;;;;;17.90;6.10;;;;;;;12.71;61.64;98437.66;25062;1316;3053370;-64
2022/04/10 07:03:27;;;;;;;22.80;7.80;;;;;;;12.80;61.55;98440.04;25157;1315;3026418;-68
2022/04/10 07:05:58;;;;;;;23.00;7.30;;;;;;;12.74;61.45;98438.14;25104;1318;3026379;-71
2022/04/10 07:08:50;;;;;;;17.90;6.80;;;;;;;12.82;61.41;98444.94;25090;1315;3052014;-70
2022/04/10 07:11:25;;;;;;;25.00;6.70;;;;;;;12.96;60.81;98455.73;25092;1318;3055076;-67
2022/04/10 07:13:55;;;;;;;21.20;6.90;;;;;;;12.87;61.20;98459.84;25115;1318;3026720;-67
2022/04/10 07:16:24;;;;;;;17.40;6.90;;;;;;;13.12;60.79;98456.99;25096;1315;3026884;-66
2022/04/10 07:18:53;;;;;;;21.00;7.00;;;;;;;13.12;60.36;98466.73;25152;1316;3054488;-70
2022/04/10 07:24:14;;;;;;;23.00;6.90;;;;;;;13.41;59.57;98459.57;25126;1315;3057646;-68
2022/04/10 07:26:52;;;;;;;19.40;6.50;;;;;;;13.42;59.48;98461.96;25239;1315;3050283;-65
2022/04/10 07:29:21;;;;;;;24.70;7.30;;;;;;;13.32;60.03;98461.40;25418;1315;3026398;-65
2022/04/10 07:31:51;;;;;;;22.20;7.50;;;;;;;13.52;59.68;98457.38;25454;1315;3026448;-64
2022/04/10 07:34:20;;;;;;;18.80;6.80;;;;;;;13.71;58.81;98461.17;25192;1315;3029125;-69
2022/04/10 07:37:08;;;;;;;18.90;6.70;;;;;;;13.79;58.41;98463.41;25095;1315;3052005;-70
2022/04/10 07:39:54;;;;;;;24.10;7.00;;;;;;;13.79;58.38;98475.55;25087;1315;3055112;-68
2022/04/10 07:42:29;;;;;;;19.90;7.00;;;;;;;13.70;58.57;98482.89;25194;1315;3029396;-69
2022/04/10 07:45:01;;;;;;;28.00;6.90;;;;;;;13.70;58.97;98481.87;25154;1315;3058382;-65
2022/04/10 07:47:57;;;;;;;19.60;6.60;;;;;;;13.77;58.77;98475.58;25096;1316;3053472;-64
2022/04/10 07:50:28;;;;;;;26.30;7.60;;;;;;;14.01;57.99;98478.58;25164;1315;3030504;-65
2022/04/10 07:52:59;;;;;;;20.00;6.50;;;;;;;14.17;57.69;98475.54;25124;1315;3026595;-68
2022/04/10 07:55:49;;;;;;;20.10;7.90;;;;;;;14.23;57.31;98477.79;25114;1315;3071202;-68
2022/04/10 07:58:18;;;;;;;24.10;6.60;;;;;;;14.14;57.43;98481.27;25108;1315;3027323;-68
2022/04/10 08:00:52;;;;;;;18.20;6.60;;;;;;;14.39;56.98;98474.92;25140;1315;3052160;-65
2022/04/10 08:03:41;;;;;;;26.50;6.60;;;;;;;14.56;56.73;98476.72;25095;1315;3071277;-66
2022/04/10 08:06:45;;;;;;;30.70;7.00;;;;;;;14.66;55.85;98483.90;25174;1315;3048180;-67
2022/04/10 08:09:25;;;;;;;25.30;6.30;;;;;;;14.74;55.84;98477.33;25125;1315;3051396;-71
2022/04/10 08:12:14;;;;;;;18.00;6.20;;;;;;;15.01;55.10;98479.66;25054;1318;3052566;-67
2022/04/10 08:14:43;;;;;;;18.30;6.50;;;;;;;15.08;54.64;98474.18;25129;1315;3026860;-70
2022/04/10 08:17:12;;;;;;;21.20;6.20;;;;;;;15.19;54.40;98471.94;25118;1316;3028750;-69
2022/04/10 08:19:45;;;;;;;17.40;5.90;;;;;;;15.14;54.01;98469.77;25070;1315;3051544;-69
2022/04/10 08:22:14;;;;;;;18.50;6.00;;;;;;;15.12;54.16;98474.18;25119;1315;3026353;-71
2022/04/10 08:25:06;;;;;;;18.20;7.10;;;;;;;15.28;53.84;98470.66;25118;1315;3054491;-68
2022/04/10 08:27:36;;;;;;;16.90;6.00;;;;;;;15.41;53.50;98463.62;25152;1315;3051114;-67
2022/04/10 08:30:08;;;;;;;22.00;6.00;;;;;;;15.46;53.44;98458.55;25125;1315;3029666;-65
2022/04/10 08:32:40;;;;;;;20.60;6.40;;;;;;;15.61;53.23;98457.42;25101;1315;3027808;-63
2022/04/10 08:35:10;;;;;;;19.70;6.40;;;;;;;15.82;52.96;98452.41;25143;1315;3027194;-68
2022/04/10 08:37:39;;;;;;;15.40;6.10;;;;;;;16.08;52.94;98443.23;25139;1315;3026909;-65
2022/04/10 08:40:10;;;;;;;21.90;6.80;;;;;;;16.29;52.42;98443.23;25046;1315;3026812;-68
2022/04/10 08:42:39;;;;;;;25.70;7.20;;;;;;;16.47;52.15;98436.80;25157;1315;3027337;-66
2022/04/10 08:45:11;;;;;;;19.40;6.30;;;;;;;16.63;51.40;98435.20;25146;1315;3026723;-69
2022/04/10 08:47:52;;;;;;;15.60;6.10;;;;;;;16.68;50.91;98442.09;25109;1316;3055224;-68
2022/04/10 08:50:26;;;;;;;19.40;6.50;;;;;;;16.64;51.01;98436.80;25033;1317;3027684;-69
2022/04/10 08:52:57;;;;;;;21.40;6.70;;;;;;;16.72;50.68;98437.60;25135;1316;3053324;-69
2022/04/10 08:55:45;;;;;;;20.40;7.70;;;;;;;16.81;50.25;98439.73;25060;1316;3054423;-72
2022/04/10 08:58:15;;;;;;;20.90;6.90;;;;;;;16.90;49.81;98443.91;25129;1315;3026590;-69
2022/04/10 09:00:45;;;;;;;22.80;7.10;;;;;;;17.10;49.68;98436.25;25104;1316;3027962;-69
2022/04/10 09:03:34;;;;;;;20.90;7.00;;;;;;;17.11;49.82;98430.79;25159;1316;3053199;-70
2022/04/10 09:06:10;;;;;;;24.40;6.70;;;;;;;17.09;49.76;98432.92;25167;1315;3026963;-68
2022/04/10 09:08:40;;;;;;;14.40;6.60;;;;;;;17.21;49.74;98427.48;25127;1315;3071502;-69
2022/04/10 09:11:10;;;;;;;22.20;6.70;;;;;;;17.23;49.26;98434.41;25149;1315;3026594;-68
2022/04/10 09:13:52;;;;;;;16.50;6.80;;;;;;;17.20;49.55;98432.30;25115;1315;3055315;-68
2022/04/10 09:16:22;;;;;;;17.30;5.90;;;;;;;17.22;49.29;98437.85;25062;1315;3026804;-70
2022/04/10 09:19:12;;;;;;;22.30;5.40;;;;;;;17.35;48.71;98431.35;25133;1315;3061107;-66
2022/04/10 09:21:44;;;;;;;20.60;6.30;;;;;;;17.49;48.37;98432.52;25135;1315;3026317;-73
2022/04/10 09:24:15;;;;;;;15.30;7.30;;;;;;;17.65;48.55;98431.04;25130;1315;3026291;-67
2022/04/10 09:26:47;;;;;;;18.80;6.10;;;;;;;17.87;48.02;98425.63;25167;1315;3028487;-66
2022/04/10 09:29:24;;;;;;;24.30;6.70;;;;;;;18.09;47.24;98423.87;25118;1315;3068343;-67
2022/04/10 09:31:55;;;;;;;19.80;7.00;;;;;;;18.26;47.08;98423.98;25126;1315;3026401;-69
2022/04/10 09:34:25;;;;;;;17.10;6.40;;;;;;;18.38;47.10;98422.31;25140;1315;3029984;-68
2022/04/10 09:37:01;;;;;;;19.40;6.20;;;;;;;18.47;46.63;98420.46;25083;1315;3027251;-65
2022/04/10 09:39:32;;;;;;;19.70;6.00;;;;;;;18.41;46.93;98423.03;25139;1315;3056663;-65
2022/04/10 09:42:06;;;;;;;20.80;6.20;;;;;;;18.40;46.42;98422.08;25117;1315;3028574;-68
2022/04/10 09:44:38;;;;;;;23.20;6.50;;;;;;;18.57;46.32;98420.28;25162;1315;3055233;-69
2022/04/10 09:47:09;;;;;;;19.60;6.20;;;;;;;18.70;46.28;98421.14;25127;1315;3026265;-69
2022/04/10 09:49:40;;;;;;;22.90;6.90;;;;;;;18.73;45.79;98421.42;25137;1315;3027437;-68
2022/04/10 09:52:29;;;;;;;15.90;5.80;;;;;;;18.65;45.57;98427.91;25130;1316;3049314;-69
2022/04/10 09:54:59;;;;;;;24.20;7.00;;;;;;;18.55;45.86;98421.02;25074;1316;3026645;-71
2022/04/10 09:57:28;;;;;;;20.30;7.10;;;;;;;18.58;45.61;98430.79;25061;1317;3026554;-68
2022/04/10 09:59:58;;;;;;;24.70;7.70;;;;;;;18.40;46.21;98427.27;25145;1316;3027785;-68
2022/04/10 10:02:45;;;;;;;24.10;7.40;;;;;;;18.46;45.88;98429.95;25103;1316;3052179;-68
2022/04/10 10:05:14;;;;;;;25.70;7.10;;;;;;;18.35;46.27;98426.20;25087;1316;3026847;-68
2022/04/10 10:07:44;;;;;;;25.70;6.80;;;;;;;18.59;46.22;98432.27;25118;1315;3029512;-67
2022/04/10 10:10:16;;;;;;;25.70;7.00;;;;;;;18.45;46.00;98438.22;25161;1315;3026568;-67
2022/04/10 10:12:50;;;;;;;25.00;7.70;;;;;;;18.38;45.99;98444.11;25154;1316;3051105;-74
2022/04/10 10:15:20;;;;;;;20.50;7.40;;;;;;;18.44;46.26;98446.59;25093;1315;3026664;-70
2022/04/10 10:17:51;;;;;;;29.60;6.40;;;;;;;18.58;45.73;98445.47;25116;1316;3026742;-69
2022/04/10 10:20:21;;;;;;;17.50;6.80;;;;;;;18.63;45.59;98443.67;25104;1316;3027012;-69
2022/04/10 10:22:50;;;;;;;21.10;6.00;;;;;;;18.64;45.24;98440.34;25070;1315;3026475;-70
2022/04/10 10:25:27;;;;;;;22.50;6.10;;;;;;;18.89;45.11;98435.64;25056;1315;3028918;-68
2022/04/10 10:28:27;;;;;;;21.50;7.00;;;;;;;18.90;44.59;98437.88;25102;1316;3053588;-69
2022/04/10 10:31:25;;;;;;;20.30;6.50;;;;;;;18.92;44.34;98440.27;25063;1315;3070134;-65
2022/04/10 10:33:56;;;;;;;19.00;6.30;;;;;;;19.01;44.71;98437.96;25126;1315;3048781;-69
2022/04/10 10:36:26;;;;;;;23.50;6.70;;;;;;;19.08;44.06;98440.58;25135;1315;3026616;-67
2022/04/10 10:38:57;;;;;;;31.30;6.70;;;;;;;18.87;44.59;98439.30;25131;1315;3026669;-67
2022/04/10 10:41:26;;;;;;;17.50;6.40;;;;;;;18.64;44.58;98438.25;25102;1315;3027553;-68
2022/04/10 10:43:57;;;;;;;23.30;6.70;;;;;;;18.66;44.99;98437.11;25123;1315;3026558;-66
2022/04/10 10:46:34;;;;;;;24.30;6.70;;;;;;;18.57;44.85;98435.86;25102;1316;3027879;-69
2022/04/10 10:49:14;;;;;;;20.20;6.10;;;;;;;18.28;44.77;98439.91;25131;1315;3051431;-67
2022/04/10 10:51:45;;;;;;;18.60;5.60;;;;;;;17.99;45.43;98448.70;25079;1316;3067447;-68
2022/04/10 10:54:18;;;;;;;21.00;7.00;;;;;;;18.04;45.27;98448.32;25157;1314;3026636;-68
2022/04/10 10:57:42;;;;;;;19.40;5.40;;;;;;;18.06;45.30;98445.98;25160;1315;3051521;-67
2022/04/10 11:00:20;;;;;;;16.80;6.40;;;;;;;18.06;45.42;98446.02;25128;1315;3055986;-66
2022/04/10 11:02:52;;;;;;;16.70;6.20;;;;;;;18.06;45.16;98449.35;25021;1315;3059398;-68
2022/04/10 11:05:24;;;;;;;13.30;5.40;;;;;;;18.01;45.06;98448.58;25158;1315;3026793;-65
2022/04/10 11:08:08;;;;;;;18.00;5.90;;;;;;;18.02;45.49;98444.79;25179;1315;3026463;-68
2022/04/10 11:11:00;;;;;;;18.50;5.00;;;;;;;18.00;45.46;98443.77;25105;1315;3054199;-70
2022/04/10 11:13:46;;;;;;;16.30;5.90;;;;;;;17.96;45.16;98445.78;25139;1315;3070953;-66
2022/04/10 11:16:15;;;;;;;17.90;5.70;;;;;;;17.96;45.39;98438.40;25141;1315;3053052;-66
2022/04/10 11:18:53;;;;;;;19.70;6.10;;;;;;;17.94;45.13;98434.48;25132;1315;3026425;-68
2022/04/10 11:21:22;;;;;;;16.60;5.60;;;;;;;18.12;45.18;98429.55;25053;1315;3052287;-64
2022/04/10 11:23:51;;;;;;;23.40;6.20;;;;;;;18.25;44.53;98422.26;25002;1318;3026824;-64
2022/04/10 11:26:42;;;;;;;16.70;5.30;;;;;;;18.30;44.18;98422.49;25055;1316;3057503;-64
2022/04/10 11:29:14;;;;;;;16.20;5.60;;;;;;;18.36;43.64;98422.68;25039;1316;3054886;-60
2022/04/10 11:31:53;;;;;;;16.10;5.80;;;;;;;18.22;43.77;98421.57;25068;1315;3059430;-60
2022/04/10 11:34:23;;;;;;;18.20;5.20;;;;;;;18.20;42.76;98422.46;25118;1315;3029289;-64
2022/04/10 11:36:55;;;;;;;21.50;5.50;;;;;;;18.29;42.49;98416.17;25080;1315;3026354;-65
2022/04/10 11:39:44;;;;;;;19.70;5.50;;;;;;;18.62;41.93;98407.08;25068;1315;3052209;-64
2022/04/10 11:42:13;;;;;;;17.90;4.50;;;;;;;18.92;41.15;98403.95;25003;1316;3026602;-61